sensor_id;sensor_type;location;lat;lon;timestamp;P1;durP1;ratioP1;P2;durP2;ratioP2
40659;SDS011;26753;45.544;9.232;2023-12-22T00:00:35;19.02;;;11.45;;
40659;SDS011;26753;45.544;9.232;2023-12-22T00:03:01;24.10;;;11.70;;
40659;SDS011;26753;45.544;9.232;2023-12-22T00:05:27;19.23;;;11.50;;
40659;SDS011;26753;45.544;9.232;2023-12-22T00:07:53;20.20;;;11.27;;
40659;SDS011;26753;45.544;9.232;2023-12-22T00:10:20;21.45;;;11.65;;
40659;SDS011;26753;45.544;9.232;2023-12-22T00:12:47;17.20;;;10.73;;
40659;SDS011;26753;45.544;9.232;2023-12-22T00:15:27;20.35;;;11.23;;
40659;SDS011;26753;45.544;9.232;2023-12-22T00:17:57;17.93;;;11.23;;
40659;SDS011;26753;45.544;9.232;2023-12-22T00:20:23;18.98;;;11.38;;
40659;SDS011;26753;45.544;9.232;2023-12-22T00:22:49;16.60;;;10.20;;
40659;SDS011;26753;45.544;9.232;2023-12-22T00:25:15;16.52;;;10.15;;
40659;SDS011;26753;45.544;9.232;2023-12-22T00:27:41;18.45;;;9.80;;
40659;SDS011;26753;45.544;9.232;2023-12-22T00:30:07;14.27;;;9.00;;
40659;SDS011;26753;45.544;9.232;2023-12-22T00:32:34;16.08;;;9.48;;
40659;SDS011;26753;45.544;9.232;2023-12-22T00:35:00;14.65;;;9.02;;
40659;SDS011;26753;45.544;9.232;2023-12-22T00:37:27;14.48;;;8.77;;
40659;SDS011;26753;45.544;9.232;2023-12-22T00:39:53;15.68;;;8.50;;
40659;SDS011;26753;45.544;9.232;2023-12-22T00:42:19;16.00;;;8.45;;
40659;SDS011;26753;45.544;9.232;2023-12-22T00:44:45;17.98;;;8.90;;
40659;SDS011;26753;45.544;9.232;2023-12-22T00:47:11;15.07;;;8.23;;
40659;SDS011;26753;45.544;9.232;2023-12-22T00:49:37;18.42;;;8.40;;
40659;SDS011;26753;45.544;9.232;2023-12-22T00:52:03;15.48;;;8.18;;
40659;SDS011;26753;45.544;9.232;2023-12-22T00:54:30;12.65;;;7.60;;
40659;SDS011;26753;45.544;9.232;2023-12-22T00:56:57;17.73;;;7.70;;
40659;SDS011;26753;45.544;9.232;2023-12-22T00:59:23;12.98;;;7.80;;
40659;SDS011;26753;45.544;9.232;2023-12-22T01:01:49;15.55;;;8.30;;
40659;SDS011;26753;45.544;9.232;2023-12-22T01:04:15;14.05;;;8.65;;
40659;SDS011;26753;45.544;9.232;2023-12-22T01:06:41;13.75;;;8.60;;
40659;SDS011;26753;45.544;9.232;2023-12-22T01:09:07;14.50;;;8.65;;
40659;SDS011;26753;45.544;9.232;2023-12-22T01:11:34;14.65;;;8.90;;
40659;SDS011;26753;45.544;9.232;2023-12-22T01:14:00;14.60;;;8.77;;
40659;SDS011;26753;45.544;9.232;2023-12-22T01:16:26;16.60;;;9.80;;
40659;SDS011;26753;45.544;9.232;2023-12-22T01:18:52;16.70;;;9.63;;
40659;SDS011;26753;45.544;9.232;2023-12-22T01:21:18;19.55;;;10.27;;
40659;SDS011;26753;45.544;9.232;2023-12-22T01:23:44;17.10;;;10.45;;
40659;SDS011;26753;45.544;9.232;2023-12-22T01:26:11;17.30;;;10.45;;
40659;SDS011;26753;45.544;9.232;2023-12-22T01:28:39;19.17;;;11.60;;
40659;SDS011;26753;45.544;9.232;2023-12-22T01:31:06;19.45;;;11.50;;
40659;SDS011;26753;45.544;9.232;2023-12-22T01:33:32;19.02;;;11.23;;
40659;SDS011;26753;45.544;9.232;2023-12-22T01:35:58;18.80;;;11.88;;
40659;SDS011;26753;45.544;9.232;2023-12-22T01:38:27;20.33;;;12.23;;
40659;SDS011;26753;45.544;9.232;2023-12-22T01:40:53;21.65;;;12.65;;
40659;SDS011;26753;45.544;9.232;2023-12-22T01:43:19;19.05;;;11.73;;
40659;SDS011;26753;45.544;9.232;2023-12-22T01:45:46;22.33;;;11.23;;
40659;SDS011;26753;45.544;9.232;2023-12-22T01:48:13;20.58;;;11.50;;
40659;SDS011;26753;45.544;9.232;2023-12-22T01:50:41;20.38;;;11.63;;
40659;SDS011;26753;45.544;9.232;2023-12-22T01:53:09;21.35;;;11.80;;
40659;SDS011;26753;45.544;9.232;2023-12-22T01:55:36;20.73;;;11.85;;
40659;SDS011;26753;45.544;9.232;2023-12-22T01:58:02;17.80;;;11.20;;
40659;SDS011;26753;45.544;9.232;2023-12-22T02:00:28;18.50;;;11.00;;
40659;SDS011;26753;45.544;9.232;2023-12-22T02:02:54;17.05;;;11.00;;
40659;SDS011;26753;45.544;9.232;2023-12-22T02:05:20;18.83;;;11.45;;
40659;SDS011;26753;45.544;9.232;2023-12-22T02:07:47;18.10;;;10.77;;
40659;SDS011;26753;45.544;9.232;2023-12-22T02:10:13;19.95;;;10.90;;
40659;SDS011;26753;45.544;9.232;2023-12-22T02:12:39;18.70;;;10.63;;
40659;SDS011;26753;45.544;9.232;2023-12-22T02:15:05;16.85;;;10.65;;
40659;SDS011;26753;45.544;9.232;2023-12-22T02:20:00;17.80;;;10.60;;
40659;SDS011;26753;45.544;9.232;2023-12-22T02:22:29;18.23;;;10.55;;
40659;SDS011;26753;45.544;9.232;2023-12-22T02:24:56;17.75;;;10.15;;
40659;SDS011;26753;45.544;9.232;2023-12-22T02:29:57;18.50;;;11.10;;
40659;SDS011;26753;45.544;9.232;2023-12-22T02:32:27;16.92;;;10.52;;
40659;SDS011;26753;45.544;9.232;2023-12-22T02:34:54;20.00;;;11.02;;
40659;SDS011;26753;45.544;9.232;2023-12-22T02:37:24;18.75;;;10.63;;
40659;SDS011;26753;45.544;9.232;2023-12-22T02:39:52;16.63;;;10.77;;
40659;SDS011;26753;45.544;9.232;2023-12-22T02:42:18;17.40;;;10.32;;
40659;SDS011;26753;45.544;9.232;2023-12-22T02:44:45;17.50;;;10.73;;
40659;SDS011;26753;45.544;9.232;2023-12-22T02:47:11;18.05;;;10.90;;
40659;SDS011;26753;45.544;9.232;2023-12-22T02:49:37;19.60;;;11.60;;
40659;SDS011;26753;45.544;9.232;2023-12-22T02:52:04;19.67;;;11.48;;
40659;SDS011;26753;45.544;9.232;2023-12-22T02:54:30;19.05;;;11.40;;
40659;SDS011;26753;45.544;9.232;2023-12-22T02:56:58;18.70;;;11.60;;
40659;SDS011;26753;45.544;9.232;2023-12-22T02:59:25;18.58;;;11.48;;
40659;SDS011;26753;45.544;9.232;2023-12-22T03:02:04;19.08;;;11.20;;
40659;SDS011;26753;45.544;9.232;2023-12-22T03:04:33;18.50;;;10.90;;
40659;SDS011;26753;45.544;9.232;2023-12-22T03:06:59;20.55;;;11.52;;
40659;SDS011;26753;45.544;9.232;2023-12-22T03:09:26;18.38;;;11.13;;
40659;SDS011;26753;45.544;9.232;2023-12-22T03:11:52;17.73;;;10.82;;
40659;SDS011;26753;45.544;9.232;2023-12-22T03:14:19;17.35;;;11.07;;
40659;SDS011;26753;45.544;9.232;2023-12-22T03:16:45;18.45;;;11.27;;
40659;SDS011;26753;45.544;9.232;2023-12-22T03:19:11;17.50;;;11.32;;
40659;SDS011;26753;45.544;9.232;2023-12-22T03:21:37;18.30;;;11.30;;
40659;SDS011;26753;45.544;9.232;2023-12-22T03:24:03;17.95;;;11.55;;
40659;SDS011;26753;45.544;9.232;2023-12-22T03:26:29;18.48;;;11.55;;
40659;SDS011;26753;45.544;9.232;2023-12-22T03:28:55;17.67;;;11.43;;
40659;SDS011;26753;45.544;9.232;2023-12-22T03:31:22;18.58;;;11.65;;
40659;SDS011;26753;45.544;9.232;2023-12-22T03:33:48;20.23;;;12.30;;
40659;SDS011;26753;45.544;9.232;2023-12-22T03:36:14;19.25;;;11.85;;
40659;SDS011;26753;45.544;9.232;2023-12-22T03:38:40;19.10;;;12.07;;
40659;SDS011;26753;45.544;9.232;2023-12-22T03:41:06;17.77;;;11.52;;
40659;SDS011;26753;45.544;9.232;2023-12-22T03:43:32;22.35;;;11.25;;
40659;SDS011;26753;45.544;9.232;2023-12-22T03:45:59;22.88;;;11.40;;
40659;SDS011;26753;45.544;9.232;2023-12-22T03:48:25;20.67;;;11.60;;
40659;SDS011;26753;45.544;9.232;2023-12-22T03:50:51;21.38;;;11.65;;
40659;SDS011;26753;45.544;9.232;2023-12-22T03:53:17;18.13;;;11.40;;
40659;SDS011;26753;45.544;9.232;2023-12-22T03:55:43;21.83;;;13.10;;
40659;SDS011;26753;45.544;9.232;2023-12-22T03:58:09;17.75;;;11.00;;
40659;SDS011;26753;45.544;9.232;2023-12-22T04:00:36;20.70;;;12.10;;
40659;SDS011;26753;45.544;9.232;2023-12-22T04:03:02;17.10;;;11.10;;
40659;SDS011;26753;45.544;9.232;2023-12-22T04:05:28;21.08;;;11.32;;
40659;SDS011;26753;45.544;9.232;2023-12-22T04:07:55;19.92;;;11.80;;
40659;SDS011;26753;45.544;9.232;2023-12-22T04:10:21;18.70;;;11.35;;
40659;SDS011;26753;45.544;9.232;2023-12-22T04:12:47;20.25;;;11.20;;
40659;SDS011;26753;45.544;9.232;2023-12-22T04:15:13;17.30;;;10.55;;
40659;SDS011;26753;45.544;9.232;2023-12-22T04:17:39;17.85;;;11.15;;
40659;SDS011;26753;45.544;9.232;2023-12-22T04:20:06;17.48;;;11.20;;
40659;SDS011;26753;45.544;9.232;2023-12-22T04:22:35;16.20;;;10.52;;
40659;SDS011;26753;45.544;9.232;2023-12-22T04:25:02;18.02;;;10.32;;
40659;SDS011;26753;45.544;9.232;2023-12-22T04:27:28;17.13;;;10.40;;
40659;SDS011;26753;45.544;9.232;2023-12-22T04:29:54;16.95;;;10.13;;
40659;SDS011;26753;45.544;9.232;2023-12-22T04:32:20;18.38;;;10.50;;
40659;SDS011;26753;45.544;9.232;2023-12-22T04:34:46;23.85;;;10.70;;
40659;SDS011;26753;45.544;9.232;2023-12-22T04:37:12;17.15;;;10.98;;
40659;SDS011;26753;45.544;9.232;2023-12-22T04:39:38;16.92;;;10.82;;
40659;SDS011;26753;45.544;9.232;2023-12-22T04:42:04;17.80;;;10.55;;
40659;SDS011;26753;45.544;9.232;2023-12-22T04:44:31;17.13;;;10.43;;
40659;SDS011;26753;45.544;9.232;2023-12-22T04:46:57;16.33;;;10.68;;
40659;SDS011;26753;45.544;9.232;2023-12-22T04:49:23;17.55;;;10.57;;
40659;SDS011;26753;45.544;9.232;2023-12-22T04:51:49;18.98;;;10.90;;
40659;SDS011;26753;45.544;9.232;2023-12-22T04:54:15;18.73;;;10.65;;
40659;SDS011;26753;45.544;9.232;2023-12-22T04:56:41;16.70;;;10.07;;
40659;SDS011;26753;45.544;9.232;2023-12-22T04:59:17;17.38;;;9.48;;
40659;SDS011;26753;45.544;9.232;2023-12-22T05:01:46;13.48;;;8.45;;
40659;SDS011;26753;45.544;9.232;2023-12-22T05:04:12;12.88;;;7.35;;
40659;SDS011;26753;45.544;9.232;2023-12-22T05:06:41;9.95;;;6.05;;
40659;SDS011;26753;45.544;9.232;2023-12-22T05:09:10;10.10;;;5.03;;
40659;SDS011;26753;45.544;9.232;2023-12-22T05:11:40;10.32;;;5.90;;
40659;SDS011;26753;45.544;9.232;2023-12-22T05:14:05;13.10;;;5.95;;
40659;SDS011;26753;45.544;9.232;2023-12-22T05:16:31;6.13;;;4.10;;
40659;SDS011;26753;45.544;9.232;2023-12-22T05:18:58;7.60;;;3.70;;
40659;SDS011;26753;45.544;9.232;2023-12-22T05:21:24;5.97;;;3.40;;
40659;SDS011;26753;45.544;9.232;2023-12-22T05:23:53;5.70;;;2.60;;
40659;SDS011;26753;45.544;9.232;2023-12-22T05:26:22;3.72;;;2.70;;
40659;SDS011;26753;45.544;9.232;2023-12-22T05:28:49;2.72;;;1.90;;
40659;SDS011;26753;45.544;9.232;2023-12-22T05:31:15;4.00;;;2.15;;
40659;SDS011;26753;45.544;9.232;2023-12-22T05:33:41;5.45;;;2.30;;
40659;SDS011;26753;45.544;9.232;2023-12-22T05:36:08;3.50;;;2.17;;
40659;SDS011;26753;45.544;9.232;2023-12-22T05:38:37;5.15;;;2.15;;
40659;SDS011;26753;45.544;9.232;2023-12-22T05:41:03;4.63;;;2.47;;
40659;SDS011;26753;45.544;9.232;2023-12-22T05:43:31;3.65;;;1.65;;
40659;SDS011;26753;45.544;9.232;2023-12-22T05:45:58;7.10;;;1.48;;
40659;SDS011;26753;45.544;9.232;2023-12-22T05:48:25;1.70;;;1.05;;
40659;SDS011;26753;45.544;9.232;2023-12-22T05:50:53;5.60;;;1.00;;
40659;SDS011;26753;45.544;9.232;2023-12-22T05:53:25;4.40;;;0.70;;
40659;SDS011;26753;45.544;9.232;2023-12-22T05:56:00;3.03;;;0.80;;
40659;SDS011;26753;45.544;9.232;2023-12-22T05:58:26;2.70;;;0.80;;
40659;SDS011;26753;45.544;9.232;2023-12-22T06:00:52;0.85;;;0.60;;
40659;SDS011;26753;45.544;9.232;2023-12-22T06:03:18;3.80;;;0.75;;
40659;SDS011;26753;45.544;9.232;2023-12-22T06:05:44;2.38;;;0.60;;
40659;SDS011;26753;45.544;9.232;2023-12-22T06:08:09;1.13;;;0.70;;
40659;SDS011;26753;45.544;9.232;2023-12-22T06:10:35;1.98;;;1.23;;
40659;SDS011;26753;45.544;9.232;2023-12-22T06:13:01;2.53;;;1.00;;
40659;SDS011;26753;45.544;9.232;2023-12-22T06:15:29;2.88;;;0.57;;
40659;SDS011;26753;45.544;9.232;2023-12-22T06:17:54;2.13;;;0.75;;
40659;SDS011;26753;45.544;9.232;2023-12-22T06:20:20;1.00;;;0.50;;
40659;SDS011;26753;45.544;9.232;2023-12-22T06:22:46;5.47;;;0.60;;
40659;SDS011;26753;45.544;9.232;2023-12-22T06:25:11;2.60;;;0.75;;
40659;SDS011;26753;45.544;9.232;2023-12-22T06:27:37;0.65;;;0.40;;
40659;SDS011;26753;45.544;9.232;2023-12-22T06:30:04;1.23;;;0.63;;
40659;SDS011;26753;45.544;9.232;2023-12-22T06:32:30;0.73;;;0.55;;
40659;SDS011;26753;45.544;9.232;2023-12-22T06:34:56;1.17;;;0.55;;
40659;SDS011;26753;45.544;9.232;2023-12-22T06:37:24;1.50;;;0.45;;
40659;SDS011;26753;45.544;9.232;2023-12-22T06:39:50;3.38;;;0.57;;
40659;SDS011;26753;45.544;9.232;2023-12-22T06:42:16;3.17;;;0.60;;
40659;SDS011;26753;45.544;9.232;2023-12-22T06:44:42;3.80;;;0.50;;
40659;SDS011;26753;45.544;9.232;2023-12-22T06:47:10;0.88;;;0.50;;
40659;SDS011;26753;45.544;9.232;2023-12-22T06:49:36;10.13;;;1.10;;
40659;SDS011;26753;45.544;9.232;2023-12-22T06:52:02;1.02;;;0.50;;
40659;SDS011;26753;45.544;9.232;2023-12-22T06:54:28;0.88;;;0.52;;
40659;SDS011;26753;45.544;9.232;2023-12-22T06:56:54;2.67;;;0.50;;
40659;SDS011;26753;45.544;9.232;2023-12-22T06:59:20;1.77;;;0.70;;
40659;SDS011;26753;45.544;9.232;2023-12-22T07:01:46;5.22;;;1.02;;
40659;SDS011;26753;45.544;9.232;2023-12-22T07:04:12;2.42;;;1.15;;
40659;SDS011;26753;45.544;9.232;2023-12-22T07:06:37;31.50;;;3.65;;
40659;SDS011;26753;45.544;9.232;2023-12-22T07:11:48;35.53;;;3.63;;
40659;SDS011;26753;45.544;9.232;2023-12-22T07:14:21;20.90;;;3.30;;
40659;SDS011;26753;45.544;9.232;2023-12-22T07:16:46;21.08;;;3.03;;
40659;SDS011;26753;45.544;9.232;2023-12-22T07:19:12;28.05;;;3.58;;
40659;SDS011;26753;45.544;9.232;2023-12-22T07:21:41;43.78;;;4.80;;
40659;SDS011;26753;45.544;9.232;2023-12-22T07:24:07;16.40;;;1.60;;
40659;SDS011;26753;45.544;9.232;2023-12-22T07:26:33;3.92;;;1.27;;
40659;SDS011;26753;45.544;9.232;2023-12-22T07:28:59;3.50;;;1.10;;
40659;SDS011;26753;45.544;9.232;2023-12-22T07:31:25;11.85;;;1.25;;
40659;SDS011;26753;45.544;9.232;2023-12-22T07:33:50;1.85;;;0.80;;
40659;SDS011;26753;45.544;9.232;2023-12-22T07:36:17;4.97;;;0.80;;
40659;SDS011;26753;45.544;9.232;2023-12-22T07:38:46;6.85;;;1.20;;
40659;SDS011;26753;45.544;9.232;2023-12-22T07:41:12;4.03;;;0.88;;
40659;SDS011;26753;45.544;9.232;2023-12-22T07:43:38;1.60;;;0.45;;
40659;SDS011;26753;45.544;9.232;2023-12-22T07:46:03;3.97;;;0.90;;
40659;SDS011;26753;45.544;9.232;2023-12-22T07:48:29;2.95;;;0.80;;
40659;SDS011;26753;45.544;9.232;2023-12-22T07:50:55;6.45;;;2.10;;
40659;SDS011;26753;45.544;9.232;2023-12-22T07:53:20;9.93;;;3.47;;
40659;SDS011;26753;45.544;9.232;2023-12-22T07:55:49;2.80;;;0.65;;
40659;SDS011;26753;45.544;9.232;2023-12-22T07:58:16;1.52;;;0.50;;
40659;SDS011;26753;45.544;9.232;2023-12-22T08:00:42;3.05;;;0.80;;
40659;SDS011;26753;45.544;9.232;2023-12-22T08:03:08;3.30;;;0.77;;
40659;SDS011;26753;45.544;9.232;2023-12-22T08:05:35;1.23;;;0.60;;
40659;SDS011;26753;45.544;9.232;2023-12-22T08:08:00;0.90;;;0.60;;
40659;SDS011;26753;45.544;9.232;2023-12-22T08:10:26;4.50;;;0.50;;
40659;SDS011;26753;45.544;9.232;2023-12-22T08:12:52;1.48;;;0.80;;
40659;SDS011;26753;45.544;9.232;2023-12-22T08:15:18;1.77;;;1.20;;
40659;SDS011;26753;45.544;9.232;2023-12-22T08:17:47;1.27;;;0.85;;
40659;SDS011;26753;45.544;9.232;2023-12-22T08:22:49;0.40;;;0.40;;
40659;SDS011;26753;45.544;9.232;2023-12-22T08:25:19;2.75;;;0.60;;
40659;SDS011;26753;45.544;9.232;2023-12-22T08:27:45;0.93;;;0.30;;
40659;SDS011;26753;45.544;9.232;2023-12-22T08:30:11;3.25;;;0.40;;
40659;SDS011;26753;45.544;9.232;2023-12-22T08:32:38;1.58;;;0.50;;
40659;SDS011;26753;45.544;9.232;2023-12-22T08:35:04;1.48;;;0.43;;
40659;SDS011;26753;45.544;9.232;2023-12-22T08:37:30;2.13;;;0.35;;
40659;SDS011;26753;45.544;9.232;2023-12-22T08:39:56;0.80;;;0.30;;
40659;SDS011;26753;45.544;9.232;2023-12-22T08:42:23;2.45;;;0.68;;
40659;SDS011;26753;45.544;9.232;2023-12-22T08:44:52;28.20;;;2.22;;
40659;SDS011;26753;45.544;9.232;2023-12-22T08:47:17;1.15;;;0.60;;
40659;SDS011;26753;45.544;9.232;2023-12-22T08:49:46;3.53;;;0.70;;
40659;SDS011;26753;45.544;9.232;2023-12-22T08:52:12;1.85;;;0.35;;
40659;SDS011;26753;45.544;9.232;2023-12-22T08:54:38;1.40;;;0.60;;
40659;SDS011;26753;45.544;9.232;2023-12-22T08:57:04;1.65;;;0.80;;
40659;SDS011;26753;45.544;9.232;2023-12-22T08:59:30;5.45;;;0.80;;
40659;SDS011;26753;45.544;9.232;2023-12-22T09:01:56;2.30;;;0.75;;
40659;SDS011;26753;45.544;9.232;2023-12-22T09:04:21;1.67;;;0.40;;
40659;SDS011;26753;45.544;9.232;2023-12-22T09:06:50;3.30;;;0.45;;
40659;SDS011;26753;45.544;9.232;2023-12-22T09:09:17;0.80;;;0.40;;
40659;SDS011;26753;45.544;9.232;2023-12-22T09:11:43;1.80;;;0.40;;
40659;SDS011;26753;45.544;9.232;2023-12-22T09:14:10;1.35;;;0.50;;
40659;SDS011;26753;45.544;9.232;2023-12-22T09:16:36;0.82;;;0.60;;
40659;SDS011;26753;45.544;9.232;2023-12-22T09:19:03;1.50;;;0.40;;
40659;SDS011;26753;45.544;9.232;2023-12-22T09:21:29;3.72;;;0.60;;
40659;SDS011;26753;45.544;9.232;2023-12-22T09:24:00;2.58;;;0.50;;
40659;SDS011;26753;45.544;9.232;2023-12-22T09:26:26;0.60;;;0.50;;
40659;SDS011;26753;45.544;9.232;2023-12-22T09:28:53;3.47;;;0.50;;
40659;SDS011;26753;45.544;9.232;2023-12-22T09:31:19;1.70;;;0.40;;
40659;SDS011;26753;45.544;9.232;2023-12-22T09:33:44;1.00;;;0.50;;
40659;SDS011;26753;45.544;9.232;2023-12-22T09:36:10;0.70;;;0.35;;
40659;SDS011;26753;45.544;9.232;2023-12-22T09:38:37;1.25;;;0.70;;
40659;SDS011;26753;45.544;9.232;2023-12-22T09:41:02;0.40;;;0.40;;
40659;SDS011;26753;45.544;9.232;2023-12-22T09:43:28;1.48;;;0.60;;
40659;SDS011;26753;45.544;9.232;2023-12-22T09:45:58;3.95;;;0.50;;
40659;SDS011;26753;45.544;9.232;2023-12-22T09:48:30;2.28;;;0.55;;
40659;SDS011;26753;45.544;9.232;2023-12-22T09:50:58;1.50;;;0.50;;
40659;SDS011;26753;45.544;9.232;2023-12-22T09:53:30;2.03;;;0.60;;
40659;SDS011;26753;45.544;9.232;2023-12-22T09:56:04;2.40;;;0.80;;
40659;SDS011;26753;45.544;9.232;2023-12-22T09:58:31;0.52;;;0.40;;
40659;SDS011;26753;45.544;9.232;2023-12-22T10:01:00;2.22;;;0.80;;
40659;SDS011;26753;45.544;9.232;2023-12-22T10:03:30;1.48;;;0.40;;
40659;SDS011;26753;45.544;9.232;2023-12-22T10:05:59;2.30;;;0.57;;
40659;SDS011;26753;45.544;9.232;2023-12-22T10:08:28;2.25;;;0.70;;
40659;SDS011;26753;45.544;9.232;2023-12-22T10:11:05;0.68;;;0.63;;
40659;SDS011;26753;45.544;9.232;2023-12-22T10:13:35;2.10;;;0.70;;
40659;SDS011;26753;45.544;9.232;2023-12-22T10:16:06;0.90;;;0.60;;
40659;SDS011;26753;45.544;9.232;2023-12-22T10:18:33;1.65;;;0.60;;
40659;SDS011;26753;45.544;9.232;2023-12-22T10:21:08;1.33;;;0.60;;
40659;SDS011;26753;45.544;9.232;2023-12-22T10:23:34;3.90;;;0.80;;
40659;SDS011;26753;45.544;9.232;2023-12-22T10:26:00;0.80;;;0.60;;
40659;SDS011;26753;45.544;9.232;2023-12-22T10:28:27;2.20;;;0.50;;
40659;SDS011;26753;45.544;9.232;2023-12-22T10:30:58;1.75;;;0.70;;
40659;SDS011;26753;45.544;9.232;2023-12-22T10:33:34;16.55;;;6.25;;
40659;SDS011;26753;45.544;9.232;2023-12-22T10:36:18;8.75;;;1.98;;
40659;SDS011;26753;45.544;9.232;2023-12-22T10:38:48;6.13;;;1.13;;
40659;SDS011;26753;45.544;9.232;2023-12-22T10:41:15;2.47;;;0.63;;
40659;SDS011;26753;45.544;9.232;2023-12-22T10:43:46;2.17;;;0.60;;
40659;SDS011;26753;45.544;9.232;2023-12-22T10:46:15;4.68;;;1.80;;
40659;SDS011;26753;45.544;9.232;2023-12-22T10:48:47;0.80;;;0.60;;
40659;SDS011;26753;45.544;9.232;2023-12-22T10:51:16;2.47;;;0.68;;
40659;SDS011;26753;45.544;9.232;2023-12-22T10:53:54;1.52;;;0.43;;
40659;SDS011;26753;45.544;9.232;2023-12-22T10:56:19;1.42;;;0.40;;
40659;SDS011;26753;45.544;9.232;2023-12-22T10:58:48;0.35;;;0.30;;
40659;SDS011;26753;45.544;9.232;2023-12-22T11:01:17;1.73;;;0.85;;
40659;SDS011;26753;45.544;9.232;2023-12-22T11:03:51;0.93;;;0.50;;
40659;SDS011;26753;45.544;9.232;2023-12-22T11:06:23;1.20;;;0.43;;
40659;SDS011;26753;45.544;9.232;2023-12-22T11:08:53;3.72;;;0.50;;
40659;SDS011;26753;45.544;9.232;2023-12-22T11:11:35;1.30;;;0.40;;
40659;SDS011;26753;45.544;9.232;2023-12-22T11:14:02;0.30;;;0.30;;
40659;SDS011;26753;45.544;9.232;2023-12-22T11:16:29;0.82;;;0.40;;
40659;SDS011;26753;45.544;9.232;2023-12-22T11:18:56;1.80;;;0.60;;
40659;SDS011;26753;45.544;9.232;2023-12-22T11:21:22;0.65;;;0.50;;
40659;SDS011;26753;45.544;9.232;2023-12-22T11:23:52;2.72;;;0.40;;
40659;SDS011;26753;45.544;9.232;2023-12-22T11:26:19;2.28;;;0.60;;
40659;SDS011;26753;45.544;9.232;2023-12-22T11:28:46;2.63;;;0.73;;
40659;SDS011;26753;45.544;9.232;2023-12-22T11:31:13;1.52;;;0.40;;
40659;SDS011;26753;45.544;9.232;2023-12-22T11:33:44;1.83;;;0.50;;
40659;SDS011;26753;45.544;9.232;2023-12-22T11:36:11;1.25;;;0.47;;
40659;SDS011;26753;45.544;9.232;2023-12-22T11:38:39;0.80;;;0.50;;
40659;SDS011;26753;45.544;9.232;2023-12-22T11:41:19;1.67;;;0.50;;
40659;SDS011;26753;45.544;9.232;2023-12-22T11:43:50;11.18;;;0.47;;
40659;SDS011;26753;45.544;9.232;2023-12-22T11:46:18;1.75;;;0.30;;
40659;SDS011;26753;45.544;9.232;2023-12-22T11:48:47;4.18;;;0.70;;
40659;SDS011;26753;45.544;9.232;2023-12-22T11:51:14;1.45;;;0.43;;
40659;SDS011;26753;45.544;9.232;2023-12-22T11:53:40;0.85;;;0.30;;
40659;SDS011;26753;45.544;9.232;2023-12-22T11:56:06;2.40;;;0.30;;
40659;SDS011;26753;45.544;9.232;2023-12-22T12:01:02;0.38;;;0.20;;
40659;SDS011;26753;45.544;9.232;2023-12-22T12:03:30;0.30;;;0.30;;
40659;SDS011;26753;45.544;9.232;2023-12-22T12:09:06;0.90;;;0.30;;
40659;SDS011;26753;45.544;9.232;2023-12-22T12:14:32;0.47;;;0.30;;
40659;SDS011;26753;45.544;9.232;2023-12-22T12:17:00;1.48;;;0.28;;
40659;SDS011;26753;45.544;9.232;2023-12-22T12:19:37;0.40;;;0.40;;
40659;SDS011;26753;45.544;9.232;2023-12-22T12:22:03;1.60;;;0.40;;
40659;SDS011;26753;45.544;9.232;2023-12-22T12:24:29;0.88;;;0.30;;
40659;SDS011;26753;45.544;9.232;2023-12-22T12:26:55;0.30;;;0.30;;
40659;SDS011;26753;45.544;9.232;2023-12-22T12:29:21;7.20;;;0.47;;
40659;SDS011;26753;45.544;9.232;2023-12-22T12:31:50;3.38;;;1.02;;
40659;SDS011;26753;45.544;9.232;2023-12-22T12:34:16;1.38;;;0.70;;
40659;SDS011;26753;45.544;9.232;2023-12-22T12:36:46;1.25;;;0.70;;
40659;SDS011;26753;45.544;9.232;2023-12-22T12:39:14;2.40;;;0.68;;
40659;SDS011;26753;45.544;9.232;2023-12-22T12:41:41;1.95;;;0.50;;
40659;SDS011;26753;45.544;9.232;2023-12-22T12:44:09;3.70;;;0.73;;
40659;SDS011;26753;45.544;9.232;2023-12-22T12:46:36;2.42;;;0.80;;
40659;SDS011;26753;45.544;9.232;2023-12-22T12:49:06;5.82;;;1.00;;
40659;SDS011;26753;45.544;9.232;2023-12-22T12:51:36;1.38;;;0.68;;
40659;SDS011;26753;45.544;9.232;2023-12-22T12:54:03;1.35;;;0.60;;
40659;SDS011;26753;45.544;9.232;2023-12-22T12:56:29;1.40;;;0.88;;
40659;SDS011;26753;45.544;9.232;2023-12-22T12:59:09;1.38;;;0.95;;
40659;SDS011;26753;45.544;9.232;2023-12-22T13:01:39;1.65;;;0.80;;
40659;SDS011;26753;45.544;9.232;2023-12-22T13:04:05;2.42;;;0.60;;
40659;SDS011;26753;45.544;9.232;2023-12-22T13:06:43;2.05;;;0.82;;
40659;SDS011;26753;45.544;9.232;2023-12-22T13:09:21;3.97;;;1.10;;
40659;SDS011;26753;45.544;9.232;2023-12-22T13:12:13;4.45;;;3.42;;
40659;SDS011;26753;45.544;9.232;2023-12-22T13:14:53;0.70;;;0.68;;
40659;SDS011;26753;45.544;9.232;2023-12-22T13:17:19;1.27;;;0.70;;
40659;SDS011;26753;45.544;9.232;2023-12-22T13:19:48;1.27;;;0.50;;
40659;SDS011;26753;45.544;9.232;2023-12-22T13:22:17;1.85;;;1.00;;
40659;SDS011;26753;45.544;9.232;2023-12-22T13:24:53;1.58;;;0.73;;
40659;SDS011;26753;45.544;9.232;2023-12-22T13:27:25;0.93;;;0.80;;
40659;SDS011;26753;45.544;9.232;2023-12-22T13:29:51;2.20;;;0.88;;
40659;SDS011;26753;45.544;9.232;2023-12-22T13:32:19;1.95;;;0.80;;
40659;SDS011;26753;45.544;9.232;2023-12-22T13:34:55;2.45;;;1.00;;
40659;SDS011;26753;45.544;9.232;2023-12-22T13:37:22;1.00;;;0.90;;
40659;SDS011;26753;45.544;9.232;2023-12-22T13:39:51;1.33;;;0.68;;
40659;SDS011;26753;45.544;9.232;2023-12-22T13:42:17;0.80;;;0.80;;
40659;SDS011;26753;45.544;9.232;2023-12-22T13:44:45;3.80;;;0.70;;
40659;SDS011;26753;45.544;9.232;2023-12-22T13:47:15;1.02;;;0.93;;
40659;SDS011;26753;45.544;9.232;2023-12-22T13:49:41;2.38;;;0.73;;
40659;SDS011;26753;45.544;9.232;2023-12-22T13:52:08;3.85;;;2.67;;
40659;SDS011;26753;45.544;9.232;2023-12-22T13:54:53;1.98;;;1.30;;
40659;SDS011;26753;45.544;9.232;2023-12-22T13:57:22;1.88;;;0.80;;
40659;SDS011;26753;45.544;9.232;2023-12-22T13:59:48;1.02;;;0.80;;
40659;SDS011;26753;45.544;9.232;2023-12-22T14:02:14;2.75;;;0.80;;
40659;SDS011;26753;45.544;9.232;2023-12-22T14:04:40;2.13;;;0.80;;
40659;SDS011;26753;45.544;9.232;2023-12-22T14:07:06;2.45;;;0.95;;
40659;SDS011;26753;45.544;9.232;2023-12-22T14:09:37;0.90;;;0.80;;
40659;SDS011;26753;45.544;9.232;2023-12-22T14:12:15;2.15;;;1.10;;
40659;SDS011;26753;45.544;9.232;2023-12-22T14:14:44;4.10;;;0.95;;
40659;SDS011;26753;45.544;9.232;2023-12-22T14:17:13;2.97;;;1.05;;
40659;SDS011;26753;45.544;9.232;2023-12-22T14:19:53;3.92;;;1.35;;
40659;SDS011;26753;45.544;9.232;2023-12-22T14:22:21;1.65;;;1.20;;
40659;SDS011;26753;45.544;9.232;2023-12-22T14:24:47;2.38;;;0.98;;
40659;SDS011;26753;45.544;9.232;2023-12-22T14:27:13;2.25;;;0.55;;
40659;SDS011;26753;45.544;9.232;2023-12-22T14:29:39;1.58;;;1.10;;
40659;SDS011;26753;45.544;9.232;2023-12-22T14:32:10;3.40;;;0.70;;
40659;SDS011;26753;45.544;9.232;2023-12-22T14:34:45;1.02;;;0.80;;
40659;SDS011;26753;45.544;9.232;2023-12-22T14:37:11;0.80;;;0.70;;
40659;SDS011;26753;45.544;9.232;2023-12-22T14:39:37;3.08;;;1.70;;
40659;SDS011;26753;45.544;9.232;2023-12-22T14:42:04;2.95;;;1.70;;
40659;SDS011;26753;45.544;9.232;2023-12-22T14:44:30;4.18;;;1.60;;
40659;SDS011;26753;45.544;9.232;2023-12-22T14:46:56;4.22;;;1.38;;
40659;SDS011;26753;45.544;9.232;2023-12-22T14:49:22;3.05;;;1.48;;
40659;SDS011;26753;45.544;9.232;2023-12-22T14:51:48;4.93;;;1.80;;
40659;SDS011;26753;45.544;9.232;2023-12-22T14:54:19;10.60;;;1.40;;
40659;SDS011;26753;45.544;9.232;2023-12-22T14:56:46;1.75;;;1.00;;
40659;SDS011;26753;45.544;9.232;2023-12-22T14:59:12;1.20;;;0.90;;